createdAt,value
2023-01-19T00:01:07.378Z,21.26
2023-01-19T00:03:34.118Z,21.30
2023-01-19T00:06:00.869Z,21.39
2023-01-19T00:08:27.727Z,21.50
2023-01-19T00:10:54.459Z,21.57
2023-01-19T00:13:21.302Z,21.60
2023-01-19T00:15:48.061Z,21.36
2023-01-19T00:18:14.820Z,19.17
2023-01-19T00:20:41.611Z,17.85
2023-01-19T00:23:08.673Z,19.11
2023-01-19T00:25:35.421Z,20.00
2023-01-19T00:28:02.204Z,20.45
2023-01-19T00:30:28.930Z,20.57
2023-01-19T00:32:55.726Z,20.88
2023-01-19T00:35:22.461Z,21.00
2023-01-19T00:37:49.210Z,21.13
2023-01-19T00:40:15.945Z,21.17
2023-01-19T00:42:45.894Z,21.29
2023-01-19T00:45:12.664Z,21.39
2023-01-19T00:47:39.506Z,21.47
2023-01-19T00:50:06.225Z,21.54
2023-01-19T00:52:32.953Z,21.62
2023-01-19T00:54:59.706Z,19.81
2023-01-19T00:57:27.463Z,18.17
2023-01-19T00:59:54.300Z,18.43
2023-01-19T01:02:21.199Z,19.67
2023-01-19T01:04:48.043Z,20.25
2023-01-19T01:07:14.785Z,20.58
2023-01-19T01:09:41.535Z,20.70
2023-01-19T01:12:08.273Z,20.88
2023-01-19T01:14:35.040Z,21.02
2023-01-19T01:17:01.854Z,21.13
2023-01-19T01:19:28.622Z,21.18
2023-01-19T01:21:55.602Z,21.30
2023-01-19T01:24:22.370Z,21.36
2023-01-19T01:26:49.131Z,21.48
2023-01-19T01:29:16.195Z,21.48
2023-01-19T01:31:42.999Z,21.64
2023-01-19T01:34:09.840Z,21.67
2023-01-19T01:36:36.653Z,20.00
2023-01-19T01:39:03.443Z,18.00
2023-01-19T01:41:30.221Z,18.35
2023-01-19T01:44:01.514Z,19.72
2023-01-19T01:46:28.279Z,20.23
2023-01-19T01:48:55.029Z,20.56
2023-01-19T01:51:24.941Z,20.78
2023-01-19T01:53:51.679Z,20.89
2023-01-19T01:56:18.423Z,21.06
2023-01-19T01:58:45.153Z,21.17
2023-01-19T02:01:30.518Z,21.24
2023-01-19T02:03:57.723Z,21.31
2023-01-19T02:06:24.447Z,21.37
2023-01-19T02:09:10.101Z,21.48
2023-01-19T02:11:55.556Z,21.61
2023-01-19T02:14:22.321Z,21.63
2023-01-19T02:16:49.109Z,20.11
2023-01-19T02:19:15.845Z,18.42
2023-01-19T02:21:42.966Z,17.83
2023-01-19T02:24:09.714Z,19.10
2023-01-19T02:26:36.449Z,19.92
2023-01-19T02:29:03.198Z,20.48
2023-01-19T02:31:29.929Z,20.61
2023-01-19T02:33:56.664Z,20.71
2023-01-19T02:36:23.428Z,20.88
2023-01-19T02:38:50.207Z,20.96
2023-01-19T02:41:16.948Z,21.12
2023-01-19T02:43:43.704Z,21.20
2023-01-19T02:46:10.454Z,21.27
2023-01-19T02:48:37.221Z,21.31
2023-01-19T02:51:06.983Z,21.40
2023-01-19T02:53:33.712Z,21.44
2023-01-19T02:56:00.444Z,21.55
2023-01-19T02:58:27.182Z,21.61
2023-01-19T03:00:53.949Z,21.65
2023-01-19T03:03:20.718Z,20.20
2023-01-19T03:05:47.453Z,18.11
2023-01-19T03:08:14.351Z,18.04
2023-01-19T03:10:41.091Z,19.54
2023-01-19T03:13:07.865Z,20.09
2023-01-19T03:15:34.632Z,20.47
2023-01-19T03:18:01.397Z,20.67
2023-01-19T03:20:28.818Z,20.84
2023-01-19T03:22:55.770Z,20.94
2023-01-19T03:25:22.497Z,21.03
2023-01-19T03:27:49.234Z,21.14
2023-01-19T03:30:16.019Z,21.29
2023-01-19T03:32:42.765Z,21.39
2023-01-19T03:35:09.521Z,21.42
2023-01-19T03:37:36.249Z,21.50
2023-01-19T03:40:03.251Z,21.57
2023-01-19T03:42:29.998Z,21.61
2023-01-19T03:44:56.735Z,21.58
2023-01-19T03:47:23.488Z,18.97
2023-01-19T03:49:50.627Z,17.83
2023-01-19T03:52:17.361Z,19.02
2023-01-19T03:54:44.270Z,19.96
2023-01-19T03:57:11.047Z,20.37
2023-01-19T03:59:37.771Z,20.61
2023-01-19T04:02:04.535Z,20.80
2023-01-19T04:04:31.303Z,20.97
2023-01-19T04:06:58.141Z,21.07
2023-01-19T04:09:25.614Z,21.18
2023-01-19T04:11:52.859Z,21.27
2023-01-19T04:14:19.640Z,21.35
2023-01-19T04:16:46.374Z,21.37
2023-01-19T04:19:13.171Z,21.49
2023-01-19T04:21:39.902Z,21.57
2023-01-19T04:24:06.621Z,21.68
2023-01-19T04:26:33.361Z,21.11
2023-01-19T04:29:00.119Z,21.04
2023-01-19T04:31:27.104Z,21.14
2023-01-19T04:33:53.967Z,21.43
2023-01-19T04:36:20.693Z,21.60
2023-01-19T04:38:48.521Z,20.05
2023-01-19T04:41:15.264Z,18.15
2023-01-19T04:43:42.139Z,18.69
2023-01-19T04:46:08.933Z,19.97
2023-01-19T04:48:35.711Z,20.43
2023-01-19T04:51:02.486Z,20.67
2023-01-19T04:53:29.224Z,20.86
2023-01-19T04:55:56.148Z,20.99
2023-01-19T04:58:22.977Z,21.11
2023-01-19T05:00:51.103Z,21.20
2023-01-19T05:03:19.236Z,21.28
2023-01-19T05:05:46.052Z,21.40
2023-01-19T05:08:12.788Z,21.53
2023-01-19T05:10:39.529Z,21.64
2023-01-19T05:13:06.266Z,21.70
2023-01-19T05:15:32.995Z,20.95
2023-01-19T05:17:59.871Z,18.58
2023-01-19T05:20:26.691Z,18.39
2023-01-19T05:22:53.575Z,19.88
2023-01-19T05:25:20.325Z,20.49
2023-01-19T05:27:47.108Z,20.76
2023-01-19T05:30:13.914Z,20.89
2023-01-19T05:32:40.662Z,21.10
2023-01-19T05:35:07.404Z,21.21
2023-01-19T05:37:34.128Z,21.33
2023-01-19T05:40:00.870Z,21.36
2023-01-19T05:42:27.620Z,21.49
2023-01-19T05:44:54.373Z,21.62
2023-01-19T05:47:21.126Z,21.62
2023-01-19T05:49:47.878Z,21.66
2023-01-19T05:52:14.777Z,20.68
2023-01-19T05:54:41.551Z,18.17
2023-01-19T05:57:08.321Z,17.79
2023-01-19T05:59:35.098Z,19.56
2023-01-19T06:02:01.882Z,20.18
2023-01-19T06:04:28.787Z,20.50
2023-01-19T06:06:55.524Z,20.69
2023-01-19T06:09:22.286Z,20.85
2023-01-19T06:11:49.069Z,20.99
2023-01-19T06:14:15.845Z,21.14
2023-01-19T06:16:42.810Z,21.24
2023-01-19T06:19:09.590Z,21.30
2023-01-19T06:21:36.315Z,21.39
2023-01-19T06:24:03.471Z,21.54
2023-01-19T06:26:30.205Z,21.50
2023-01-19T06:28:57.046Z,21.60
2023-01-19T06:31:23.797Z,21.53
2023-01-19T06:33:50.569Z,18.91
2023-01-19T06:36:17.290Z,18.33
2023-01-19T06:38:44.036Z,19.58
2023-01-19T06:41:10.767Z,20.26
2023-01-19T06:43:37.489Z,20.60
2023-01-19T06:46:04.740Z,20.87
2023-01-19T06:48:31.507Z,21.01
2023-01-19T06:50:59.682Z,21.12
2023-01-19T06:53:27.897Z,21.23
2023-01-19T06:55:54.657Z,21.32
2023-01-19T06:58:21.672Z,21.43
2023-01-19T07:00:50.216Z,21.55
2023-01-19T07:03:17.847Z,21.53
2023-01-19T07:05:44.852Z,21.69
2023-01-19T07:08:11.769Z,20.68
2023-01-19T07:11:25.977Z,18.38
2023-01-19T07:13:25.333Z,17.82
2023-01-19T07:15:52.211Z,19.41
2023-01-19T07:18:18.947Z,20.07
2023-01-19T07:20:46.778Z,20.45
2023-01-19T07:23:13.594Z,20.67
2023-01-19T07:25:40.403Z,20.83
2023-01-19T07:28:07.149Z,21.07
2023-01-19T07:30:33.975Z,21.06
2023-01-19T07:33:02.670Z,21.13
2023-01-19T07:35:29.628Z,21.26
2023-01-19T07:37:56.358Z,21.35
2023-01-19T07:40:24.053Z,21.43
2023-01-19T07:42:51.877Z,21.49
2023-01-19T07:45:18.617Z,21.55
2023-01-19T07:47:46.585Z,21.47
2023-01-19T07:50:13.783Z,19.16
2023-01-19T07:52:40.595Z,17.55
2023-01-19T07:55:07.376Z,18.72
2023-01-19T07:57:34.241Z,19.91
2023-01-19T08:00:01.034Z,20.28
2023-01-19T08:02:27.794Z,20.58
2023-01-19T08:04:54.968Z,20.78
2023-01-19T08:07:21.762Z,20.92
2023-01-19T08:09:48.487Z,21.06
2023-01-19T08:12:15.232Z,21.13
2023-01-19T08:14:41.959Z,21.27
2023-01-19T08:17:08.787Z,21.35
2023-01-19T08:19:35.594Z,21.40
2023-01-19T08:22:02.386Z,21.51
2023-01-19T08:24:29.175Z,21.56
2023-01-19T08:26:56.018Z,21.66
2023-01-19T08:29:23.229Z,20.85
2023-01-19T08:31:50.090Z,18.35
2023-01-19T08:34:16.935Z,18.43
2023-01-19T08:36:43.688Z,19.89
2023-01-19T08:39:12.019Z,20.43
2023-01-19T08:41:38.767Z,20.68
2023-01-19T08:44:05.504Z,20.92
2023-01-19T08:46:32.391Z,21.04
2023-01-19T08:48:59.143Z,21.21
2023-01-19T08:51:25.889Z,21.26
2023-01-19T08:53:52.642Z,21.39
2023-01-19T08:56:20.692Z,21.43
2023-01-19T08:58:53.652Z,21.48
2023-01-19T09:01:30.204Z,21.63
2023-01-19T09:03:57.014Z,21.57
2023-01-19T09:06:25.125Z,18.91
2023-01-19T09:08:51.926Z,18.38
2023-01-19T09:11:19.605Z,19.48
2023-01-19T09:13:46.569Z,20.36
2023-01-19T09:16:15.044Z,20.61
2023-01-19T09:18:41.868Z,20.92
2023-01-19T09:21:08.630Z,21.16
2023-01-19T09:23:35.449Z,21.11
2023-01-19T09:26:02.217Z,21.32
2023-01-19T09:28:29.273Z,21.37
2023-01-19T09:30:56.166Z,21.45
2023-01-19T09:33:22.932Z,21.54
2023-01-19T09:35:50.579Z,21.61
2023-01-19T09:38:17.484Z,21.61
2023-01-19T09:40:44.228Z,21.46
2023-01-19T09:43:10.976Z,18.95
2023-01-19T09:45:37.805Z,18.15
2023-01-19T09:48:04.537Z,19.56
2023-01-19T09:50:31.399Z,20.39
2023-01-19T09:53:01.208Z,20.68
2023-01-19T09:55:28.276Z,20.84
2023-01-19T09:57:55.084Z,21.03
2023-01-19T10:00:23.301Z,21.20
2023-01-19T10:02:51.721Z,21.30
2023-01-19T10:05:18.497Z,21.36
2023-01-19T10:07:45.331Z,21.48
2023-01-19T10:10:12.073Z,21.56
2023-01-19T10:12:38.813Z,21.61
2023-01-19T10:15:06.656Z,21.72
2023-01-19T10:17:33.413Z,19.58
2023-01-19T10:20:00.157Z,17.83
2023-01-19T10:22:26.910Z,18.92
2023-01-19T10:24:53.683Z,19.01
2023-01-19T10:27:20.661Z,19.45
2023-01-19T10:29:47.450Z,20.18
2023-01-19T10:32:14.754Z,20.51
2023-01-19T10:34:41.666Z,20.74
2023-01-19T10:37:08.491Z,20.91
2023-01-19T10:39:38.561Z,21.00
2023-01-19T10:42:05.769Z,21.12
2023-01-19T10:44:32.506Z,21.23
2023-01-19T10:46:59.661Z,21.33
2023-01-19T10:49:26.497Z,21.37
2023-01-19T10:51:53.314Z,21.42
2023-01-19T10:54:20.064Z,21.54
2023-01-19T10:56:46.946Z,21.62
2023-01-19T10:59:13.692Z,21.60
2023-01-19T11:01:40.523Z,19.20
2023-01-19T11:04:07.340Z,18.07
2023-01-19T11:06:35.562Z,19.03
2023-01-19T11:09:02.449Z,18.83
2023-01-19T11:11:29.212Z,18.73
2023-01-19T11:13:56.038Z,19.77
2023-01-19T11:16:22.932Z,20.42
2023-01-19T11:18:49.681Z,20.51
2023-01-19T11:21:16.499Z,20.75
2023-01-19T11:23:43.359Z,20.85
2023-01-19T11:26:10.105Z,21.00
2023-01-19T11:28:36.863Z,21.03
2023-01-19T11:31:03.630Z,21.13
2023-01-19T11:33:30.389Z,21.31
2023-01-19T11:35:57.177Z,21.35
2023-01-19T11:38:25.660Z,21.46
2023-01-19T11:40:52.904Z,21.58
2023-01-19T11:43:19.698Z,21.53
2023-01-19T11:45:46.469Z,21.61
2023-01-19T11:48:13.292Z,20.88
2023-01-19T11:50:40.053Z,18.56
2023-01-19T11:53:06.778Z,18.44
2023-01-19T11:55:34.005Z,19.93
2023-01-19T11:58:01.043Z,20.43
2023-01-19T12:00:29.017Z,20.74
2023-01-19T12:02:55.868Z,20.95
2023-01-19T12:05:22.636Z,21.06
2023-01-19T12:07:49.402Z,21.18
2023-01-19T12:10:16.156Z,21.31
2023-01-19T12:12:43.022Z,21.36
2023-01-19T12:15:09.814Z,21.44
2023-01-19T12:17:36.554Z,21.56
2023-01-19T12:20:03.409Z,21.61
2023-01-19T12:22:30.199Z,21.07
2023-01-19T12:24:56.976Z,18.59
2023-01-19T12:27:23.742Z,18.15
2023-01-19T12:29:50.876Z,19.65
2023-01-19T12:32:17.612Z,20.17
2023-01-19T12:34:44.947Z,20.47
2023-01-19T12:37:13.676Z,20.73
2023-01-19T12:39:40.546Z,20.90
2023-01-19T12:42:07.325Z,21.09
2023-01-19T12:44:34.320Z,21.24
2023-01-19T12:47:06.146Z,21.29
2023-01-19T12:49:32.953Z,21.32
2023-01-19T12:51:59.686Z,21.46
2023-01-19T12:54:26.419Z,21.57
2023-01-19T12:56:53.175Z,21.58
2023-01-19T12:59:19.948Z,21.63
2023-01-19T13:01:46.801Z,19.21
2023-01-19T13:04:13.606Z,18.31
2023-01-19T13:06:40.334Z,19.43
2023-01-19T13:09:07.058Z,20.20
2023-01-19T13:11:34.778Z,20.58
2023-01-19T13:14:01.572Z,20.84
2023-01-19T13:16:28.623Z,20.97
2023-01-19T13:18:55.408Z,21.16
2023-01-19T13:21:22.157Z,21.23
2023-01-19T13:23:50.762Z,21.38
2023-01-19T13:26:17.505Z,21.49
2023-01-19T13:28:44.241Z,21.57
2023-01-19T13:31:11.127Z,21.59
2023-01-19T13:33:40.733Z,21.79
2023-01-19T13:36:07.746Z,20.38
2023-01-19T13:38:34.512Z,18.07
2023-01-19T13:41:01.254Z,18.31
2023-01-19T13:43:28.359Z,19.68
2023-01-19T13:45:55.163Z,20.29
2023-01-19T13:48:24.702Z,20.58
2023-01-19T13:50:51.440Z,20.74
2023-01-19T13:53:18.912Z,21.01
2023-01-19T13:55:46.258Z,21.14
2023-01-19T13:58:13.172Z,21.22
2023-01-19T14:00:41.412Z,21.29
2023-01-19T14:03:08.191Z,21.36
2023-01-19T14:05:35.150Z,21.49
2023-01-19T14:08:01.980Z,21.56
2023-01-19T14:10:28.890Z,21.61
2023-01-19T14:12:59.483Z,19.83
2023-01-19T14:15:26.483Z,18.13
2023-01-19T14:17:53.273Z,17.93
2023-01-19T14:20:19.996Z,19.61
2023-01-19T14:22:47.100Z,20.12
2023-01-19T14:25:13.855Z,20.55
2023-01-19T14:27:40.613Z,20.71
2023-01-19T14:30:07.367Z,20.83
2023-01-19T14:32:34.114Z,21.02
2023-01-19T14:35:04.210Z,21.11
2023-01-19T14:37:31.138Z,21.18
2023-01-19T14:39:57.908Z,21.25
2023-01-19T14:42:24.782Z,21.43
2023-01-19T14:44:51.557Z,21.50
2023-01-19T14:47:18.334Z,21.55
2023-01-19T14:49:45.066Z,21.73
2023-01-19T14:52:11.831Z,21.09
2023-01-19T14:54:38.667Z,18.49
2023-01-19T14:57:05.446Z,17.51
2023-01-19T14:59:32.195Z,19.32
2023-01-19T15:01:59.799Z,20.03
2023-01-19T15:04:26.618Z,20.36
2023-01-19T15:06:53.432Z,20.56
2023-01-19T15:09:20.246Z,20.82
2023-01-19T15:11:47.002Z,20.95
2023-01-19T15:14:13.773Z,21.04
2023-01-19T15:16:40.517Z,21.18
2023-01-19T15:19:07.303Z,21.29
2023-01-19T15:21:34.140Z,21.30
2023-01-19T15:24:01.137Z,21.44
2023-01-19T15:26:28.003Z,21.43
2023-01-19T15:28:54.739Z,21.57
2023-01-19T15:31:21.705Z,21.67
2023-01-19T15:33:48.491Z,20.50
2023-01-19T15:36:17.726Z,18.53
2023-01-19T15:38:44.795Z,17.52
2023-01-19T15:41:11.580Z,19.18
2023-01-19T15:43:38.311Z,19.95
2023-01-19T15:46:06.233Z,20.32
2023-01-19T15:48:33.060Z,20.54
2023-01-19T15:50:59.796Z,20.68
2023-01-19T15:53:27.163Z,20.94
2023-01-19T15:55:55.374Z,21.02
2023-01-19T15:58:23.357Z,21.23
2023-01-19T16:00:50.188Z,21.16
2023-01-19T16:03:16.969Z,21.32
2023-01-19T16:05:43.939Z,21.41
2023-01-19T16:08:10.778Z,21.47
2023-01-19T16:10:37.754Z,21.49
2023-01-19T16:13:04.488Z,21.58
2023-01-19T16:15:31.257Z,19.89
2023-01-19T16:17:58.305Z,17.99
2023-01-19T16:20:25.036Z,17.53
2023-01-19T16:22:51.785Z,18.98
2023-01-19T16:25:18.574Z,19.81
2023-01-19T16:27:45.293Z,20.20
2023-01-19T16:30:12.444Z,20.48
2023-01-19T16:32:39.371Z,20.53
2023-01-19T16:35:06.120Z,20.81
2023-01-19T16:37:32.888Z,20.87
2023-01-19T16:39:59.635Z,21.03
2023-01-19T16:42:26.477Z,21.17
2023-01-19T16:44:54.455Z,21.14
2023-01-19T16:47:21.225Z,21.22
2023-01-19T16:49:48.121Z,21.40
2023-01-19T16:52:14.977Z,21.51
2023-01-19T16:54:42.410Z,21.51
2023-01-19T16:57:09.149Z,21.61
2023-01-19T16:59:35.969Z,21.60
2023-01-19T17:02:02.756Z,21.66
2023-01-19T17:04:29.635Z,20.42
2023-01-19T17:06:56.476Z,18.62
2023-01-19T17:09:23.212Z,18.24
2023-01-19T17:11:49.949Z,19.33
2023-01-19T17:14:16.733Z,20.00
2023-01-19T17:16:43.721Z,20.37
2023-01-19T17:19:10.464Z,20.58
2023-01-19T17:21:37.252Z,20.77
2023-01-19T17:24:04.015Z,20.94
2023-01-19T17:26:31.048Z,21.01
2023-01-19T17:28:57.925Z,21.15
2023-01-19T17:31:24.749Z,21.21
2023-01-19T17:33:51.765Z,21.27
2023-01-19T17:36:22.083Z,21.42
2023-01-19T17:38:48.936Z,21.48
2023-01-19T17:41:15.693Z,21.66
2023-01-19T17:43:42.479Z,19.92
2023-01-19T17:46:09.288Z,18.04
2023-01-19T17:48:36.140Z,17.72
2023-01-19T17:51:03.442Z,19.42
2023-01-19T17:53:30.489Z,20.03
2023-01-19T17:55:57.242Z,20.38
2023-01-19T17:58:24.066Z,20.59
2023-01-19T18:00:50.873Z,20.83
2023-01-19T18:03:17.662Z,20.94
2023-01-19T18:05:44.514Z,21.08
2023-01-19T18:08:11.279Z,21.21
2023-01-19T18:10:38.122Z,21.23
2023-01-19T18:13:04.876Z,21.35
2023-01-19T18:15:31.658Z,21.48
2023-01-19T18:17:58.423Z,21.50
2023-01-19T18:20:25.199Z,21.54
2023-01-19T18:22:51.930Z,21.59
2023-01-19T18:25:18.670Z,21.65
2023-01-19T18:27:45.414Z,20.48
2023-01-19T18:30:12.312Z,18.26
2023-01-19T18:32:39.328Z,17.60
2023-01-19T18:35:06.169Z,19.28
2023-01-19T18:37:33.021Z,20.18
2023-01-19T18:40:04.096Z,20.41
2023-01-19T18:42:30.920Z,20.65
2023-01-19T18:44:57.704Z,20.79
2023-01-19T18:47:24.498Z,20.97
2023-01-19T18:49:51.334Z,21.07
2023-01-19T18:52:18.096Z,21.16
2023-01-19T18:54:44.836Z,21.20
2023-01-19T18:57:11.586Z,21.30
2023-01-19T18:59:38.382Z,21.46
2023-01-19T19:02:06.632Z,21.41
2023-01-19T19:04:33.555Z,21.54
2023-01-19T19:07:00.332Z,21.62
2023-01-19T19:09:27.206Z,21.65
2023-01-19T19:11:54.023Z,19.84
2023-01-19T19:14:20.818Z,18.42
2023-01-19T19:16:47.611Z,18.42
2023-01-19T19:19:15.382Z,19.60
2023-01-19T19:21:42.174Z,20.30
2023-01-19T19:24:08.891Z,20.56
2023-01-19T19:26:35.652Z,20.75
2023-01-19T19:29:03.257Z,20.87
2023-01-19T19:31:30.364Z,20.98
2023-01-19T19:33:57.253Z,21.17
2023-01-19T19:36:24.019Z,21.21
2023-01-19T19:38:50.792Z,21.27
2023-01-19T19:41:17.601Z,21.36
2023-01-19T19:43:44.387Z,21.45
2023-01-19T19:46:11.205Z,21.53
2023-01-19T19:48:39.332Z,21.60
2023-01-19T19:51:17.660Z,21.62
2023-01-19T19:53:45.058Z,19.55
2023-01-19T19:56:12.922Z,18.24
2023-01-19T19:58:39.745Z,18.73
2023-01-19T20:01:06.620Z,19.69
2023-01-19T20:03:33.453Z,20.35
2023-01-19T20:06:00.199Z,20.62
2023-01-19T20:08:26.968Z,20.73
2023-01-19T20:10:53.743Z,20.91
2023-01-19T20:13:21.948Z,21.02
2023-01-19T20:15:48.785Z,21.17
2023-01-19T20:18:15.643Z,21.26
2023-01-19T20:20:42.416Z,21.37
2023-01-19T20:23:09.449Z,21.43
2023-01-19T20:25:36.257Z,21.57
2023-01-19T20:28:03.006Z,21.54
2023-01-19T20:30:29.830Z,21.67
2023-01-19T20:32:56.618Z,21.72
2023-01-19T20:35:23.380Z,20.82
2023-01-19T20:37:50.128Z,19.13
2023-01-19T20:40:17.066Z,18.26
2023-01-19T20:42:44.311Z,19.20
2023-01-19T20:45:11.765Z,19.94
2023-01-19T20:47:38.763Z,20.44
2023-01-19T20:50:06.239Z,20.77
2023-01-19T20:52:33.043Z,20.87
2023-01-19T20:54:59.783Z,21.03
2023-01-19T20:57:26.557Z,21.15
2023-01-19T20:59:53.306Z,21.21
2023-01-19T21:02:20.341Z,21.34
2023-01-19T21:04:47.162Z,21.38
2023-01-19T21:07:13.972Z,21.47
2023-01-19T21:09:40.820Z,21.54
2023-01-19T21:12:09.482Z,21.60
2023-01-19T21:14:36.367Z,20.48
2023-01-19T21:17:03.302Z,18.96
2023-01-19T21:19:30.086Z,18.36
2023-01-19T21:21:56.996Z,19.22
2023-01-19T21:24:23.808Z,19.97
2023-01-19T21:26:50.732Z,20.38
2023-01-19T21:29:17.531Z,20.65
2023-01-19T21:31:44.411Z,20.96
2023-01-19T21:34:11.282Z,20.95
2023-01-19T21:36:38.068Z,21.17
2023-01-19T21:39:06.210Z,21.25
2023-01-19T21:41:34.718Z,21.33
2023-01-19T21:44:01.550Z,21.44
2023-01-19T21:46:32.892Z,21.50
2023-01-19T21:48:59.667Z,21.49
2023-01-19T21:51:26.424Z,21.61
2023-01-19T21:53:55.828Z,21.53
2023-01-19T21:56:23.029Z,19.61
2023-01-19T21:58:49.800Z,18.63
2023-01-19T22:01:16.658Z,19.02
2023-01-19T22:03:43.523Z,19.58
2023-01-19T22:06:10.381Z,20.26
2023-01-19T22:08:37.279Z,20.60
2023-01-19T22:11:05.199Z,20.78
2023-01-19T22:13:32.268Z,20.91
2023-01-19T22:15:59.158Z,21.12
2023-01-19T22:18:25.906Z,21.25
2023-01-19T22:20:52.750Z,21.26
2023-01-19T22:23:19.572Z,21.37
2023-01-19T22:25:46.399Z,21.46
2023-01-19T22:28:13.194Z,21.49
2023-01-19T22:30:40.077Z,21.60
2023-01-19T22:33:06.914Z,21.63
2023-01-19T22:35:33.671Z,21.65
2023-01-19T22:38:00.588Z,19.46
2023-01-19T22:40:27.329Z,18.40
2023-01-19T22:42:54.134Z,18.55
2023-01-19T22:45:21.716Z,19.45
2023-01-19T22:47:48.498Z,20.16
2023-01-19T22:50:15.255Z,20.49
2023-01-19T22:52:42.392Z,20.70
2023-01-19T22:55:09.124Z,20.84
2023-01-19T22:57:36.517Z,21.03
2023-01-19T23:00:03.304Z,21.05
2023-01-19T23:02:30.049Z,21.25
2023-01-19T23:04:56.891Z,21.25
2023-01-19T23:07:23.760Z,21.32
2023-01-19T23:09:50.515Z,21.50
2023-01-19T23:12:17.281Z,21.50
2023-01-19T23:14:44.030Z,21.58
2023-01-19T23:17:10.809Z,21.72
2023-01-19T23:19:37.563Z,19.98
2023-01-19T23:22:04.401Z,18.47
2023-01-19T23:24:31.209Z,18.07
2023-01-19T23:26:57.954Z,19.50
2023-01-19T23:29:24.799Z,20.26
2023-01-19T23:31:53.390Z,20.52
2023-01-19T23:34:20.253Z,20.71
2023-01-19T23:36:47.070Z,20.93
2023-01-19T23:39:13.810Z,20.95
2023-01-19T23:41:40.593Z,21.04
2023-01-19T23:44:07.499Z,21.24
2023-01-19T23:46:34.268Z,21.27
2023-01-19T23:49:01.065Z,21.31
2023-01-19T23:51:27.817Z,21.45
2023-01-19T23:53:54.548Z,21.54
2023-01-19T23:56:21.317Z,21.52
2023-01-19T23:58:48.049Z,21.62
